createdAt,value
2017-12-27T00:01:48.602Z,27.85
2017-12-27T00:04:21.927Z,30.27
2017-12-27T00:06:55.222Z,22.05
2017-12-27T00:09:29.954Z,28.00
2017-12-27T00:12:04.062Z,26.23
2017-12-27T00:14:38.112Z,24.48
2017-12-27T00:17:11.375Z,23.67
2017-12-27T00:19:45.490Z,25.27
2017-12-27T00:22:28.823Z,30.60
2017-12-27T00:25:02.802Z,33.45
2017-12-27T00:27:35.882Z,30.62
2017-12-27T00:30:09.070Z,32.17
2017-12-27T00:32:36.066Z,28.17
2017-12-27T00:35:04.342Z,29.27
2017-12-27T00:37:32.638Z,30.98
2017-12-27T00:40:00.135Z,33.30
2017-12-27T00:42:27.646Z,30.70
2017-12-27T00:44:55.286Z,33.45
2017-12-27T00:47:23.555Z,35.50
2017-12-27T00:49:51.054Z,32.33
2017-12-27T00:52:18.554Z,31.58
2017-12-27T00:54:46.050Z,31.70
2017-12-27T00:57:13.554Z,41.08
2017-12-27T00:59:41.051Z,39.42
2017-12-27T01:02:09.322Z,36.88
2017-12-27T01:04:36.874Z,32.58
2017-12-27T01:07:04.366Z,44.58
2017-12-27T01:09:31.873Z,40.53
2017-12-27T01:11:59.371Z,38.92
2017-12-27T01:14:27.634Z,37.88
2017-12-27T01:16:55.922Z,35.03
2017-12-27T01:19:24.186Z,34.25
2017-12-27T01:21:52.465Z,45.95
2017-12-27T01:24:20.956Z,37.15
2017-12-27T01:26:49.230Z,39.25
2017-12-27T01:29:17.495Z,39.60
2017-12-27T01:31:44.988Z,40.95
2017-12-27T01:34:12.503Z,45.70
2017-12-27T01:36:40.010Z,46.47
2017-12-27T01:39:07.507Z,40.12
2017-12-27T01:41:35.203Z,41.65
2017-12-27T01:44:03.474Z,41.88
2017-12-27T01:46:31.734Z,45.97
2017-12-27T01:48:59.232Z,41.70
2017-12-27T01:51:26.726Z,49.65
2017-12-27T01:53:54.242Z,44.03
2017-12-27T01:56:21.750Z,46.00
2017-12-27T01:58:49.455Z,46.42
2017-12-27T02:01:17.720Z,47.92
2017-12-27T02:03:45.983Z,47.50
2017-12-27T02:06:13.490Z,43.20
2017-12-27T02:08:40.986Z,43.72
2017-12-27T02:11:08.491Z,40.63
2017-12-27T02:13:35.996Z,48.90
2017-12-27T02:16:03.506Z,43.67
2017-12-27T02:18:31.006Z,39.22
2017-12-27T02:20:58.618Z,47.00
2017-12-27T02:23:26.898Z,44.63
2017-12-27T02:25:55.158Z,46.58
2017-12-27T02:28:23.442Z,46.83
2017-12-27T02:30:51.703Z,43.55
2017-12-27T02:33:19.203Z,44.40
2017-12-27T02:35:46.718Z,44.67
2017-12-27T02:38:14.230Z,47.22
2017-12-27T02:40:41.723Z,50.00
2017-12-27T02:43:09.998Z,44.67
2017-12-27T02:45:37.499Z,49.72
2017-12-27T02:48:04.994Z,48.45
2017-12-27T02:50:32.490Z,50.05
2017-12-27T02:52:59.978Z,55.83
2017-12-27T02:55:27.490Z,51.50
2017-12-27T02:57:54.986Z,50.47
2017-12-27T03:00:23.323Z,59.17
2017-12-27T03:02:50.826Z,52.80
2017-12-27T03:05:18.336Z,58.03
2017-12-27T03:07:45.834Z,58.40
2017-12-27T03:10:14.093Z,71.85
2017-12-27T03:12:41.606Z,63.92
2017-12-27T03:15:09.104Z,59.30
2017-12-27T03:17:36.599Z,55.10
2017-12-27T03:20:04.090Z,61.42
2017-12-27T03:22:31.603Z,64.62
2017-12-27T03:24:59.882Z,67.30
2017-12-27T03:27:28.154Z,71.22
2017-12-27T03:29:56.436Z,58.15
2017-12-27T03:32:24.704Z,65.72
2017-12-27T03:34:53.019Z,57.15
2017-12-27T03:37:20.520Z,68.90
2017-12-27T03:39:48.007Z,68.75
2017-12-27T03:42:15.503Z,62.80
2017-12-27T03:44:43.008Z,72.35
2017-12-27T03:47:11.267Z,63.63
2017-12-27T03:49:38.769Z,62.33
2017-12-27T03:52:06.267Z,59.30
2017-12-27T03:54:33.762Z,59.13
2017-12-27T03:57:02.127Z,59.08
2017-12-27T03:59:29.634Z,50.45
2017-12-27T04:01:57.136Z,51.13
2017-12-27T04:04:24.646Z,49.58
2017-12-27T04:06:52.146Z,47.30
2017-12-27T04:09:19.655Z,45.20
2017-12-27T04:11:47.170Z,38.30
2017-12-27T04:14:14.683Z,44.53
2017-12-27T04:16:42.175Z,43.97
2017-12-27T04:19:09.692Z,39.35
2017-12-27T04:21:37.198Z,47.62
2017-12-27T04:24:04.718Z,43.63
2017-12-27T04:26:32.216Z,46.45
2017-12-27T04:28:59.726Z,51.75
2017-12-27T04:31:27.242Z,46.47
2017-12-27T04:33:54.750Z,45.97
2017-12-27T04:36:22.262Z,51.10
2017-12-27T04:38:49.786Z,46.53
2017-12-27T04:41:17.430Z,51.15
2017-12-27T04:43:44.939Z,43.38
2017-12-27T04:46:12.432Z,41.55
2017-12-27T04:48:39.931Z,42.28
2017-12-27T04:51:07.426Z,36.67
2017-12-27T04:53:35.719Z,40.30
2017-12-27T04:56:03.214Z,36.75
2017-12-27T04:58:30.727Z,38.03
2017-12-27T05:00:58.990Z,29.67
2017-12-27T05:03:27.271Z,33.90
2017-12-27T05:05:55.547Z,37.42
2017-12-27T05:08:23.811Z,41.20
2017-12-27T05:10:51.310Z,34.17
2017-12-27T05:13:18.806Z,36.65
2017-12-27T05:15:46.298Z,31.40
2017-12-27T05:18:14.557Z,32.75
2017-12-27T05:20:42.051Z,29.73
2017-12-27T05:23:09.546Z,30.73
2017-12-27T05:25:37.035Z,26.75
2017-12-27T05:28:04.538Z,29.95
2017-12-27T05:30:32.166Z,26.85
2017-12-27T05:33:00.438Z,28.62
2017-12-27T05:35:28.715Z,27.70
2017-12-27T05:37:56.998Z,28.00
2017-12-27T05:40:25.259Z,26.90
2017-12-27T05:42:52.763Z,27.67
2017-12-27T05:45:20.276Z,30.52
2017-12-27T05:47:47.776Z,33.58
2017-12-27T05:50:15.272Z,30.25
2017-12-27T05:52:42.767Z,26.40
2017-12-27T05:55:11.055Z,31.45
2017-12-27T05:57:38.554Z,27.42
2017-12-27T06:00:06.057Z,29.10
2017-12-27T06:02:34.335Z,30.42
2017-12-27T06:05:02.629Z,24.87
2017-12-27T06:07:30.139Z,25.02
2017-12-27T06:09:57.648Z,29.20
2017-12-27T06:12:25.148Z,23.67
2017-12-27T06:14:52.659Z,24.20
2017-12-27T06:17:20.172Z,26.08
2017-12-27T06:19:47.674Z,25.00
2017-12-27T06:22:15.387Z,21.90
2017-12-27T06:24:42.884Z,23.70
2017-12-27T06:27:11.142Z,20.92
2017-12-27T06:29:38.643Z,23.08
2017-12-27T06:32:06.238Z,25.90
2017-12-27T06:34:33.743Z,23.77
2017-12-27T06:37:01.254Z,23.73
2017-12-27T06:39:28.755Z,28.20
2017-12-27T06:41:57.016Z,23.05
2017-12-27T06:44:24.514Z,20.33
2017-12-27T06:46:52.028Z,19.45
2017-12-27T06:49:19.529Z,20.60
2017-12-27T06:51:47.055Z,24.45
2017-12-27T06:54:15.318Z,21.50
2017-12-27T06:56:42.830Z,22.25
2017-12-27T06:59:10.326Z,26.52
2017-12-27T07:01:37.840Z,22.48
2017-12-27T07:04:05.359Z,22.13
2017-12-27T07:06:32.859Z,20.60
2017-12-27T07:09:00.355Z,25.42
2017-12-27T07:11:27.875Z,21.95
2017-12-27T07:13:55.371Z,22.05
2017-12-27T07:16:22.889Z,20.98
2017-12-27T07:18:50.387Z,18.17
2017-12-27T07:21:18.083Z,23.42
2017-12-27T07:23:46.346Z,27.02
2017-12-27T07:26:15.346Z,26.67
2017-12-27T07:28:43.618Z,23.58
2017-12-27T07:31:11.130Z,20.02
2017-12-27T07:33:38.618Z,29.15
2017-12-27T07:36:06.143Z,27.15
2017-12-27T07:38:33.648Z,23.87
2017-12-27T07:41:01.192Z,24.50
2017-12-27T07:43:28.704Z,20.40
2017-12-27T07:45:56.208Z,26.70
2017-12-27T07:48:23.731Z,19.55
2017-12-27T07:50:51.235Z,19.95
2017-12-27T07:53:18.731Z,21.55
2017-12-27T07:55:46.232Z,19.85
2017-12-27T07:58:13.734Z,19.98
2017-12-27T08:00:42.011Z,19.12
2017-12-27T08:03:10.274Z,19.45
2017-12-27T08:05:38.542Z,19.87
2017-12-27T08:08:06.225Z,20.50
2017-12-27T08:10:34.486Z,19.83
2017-12-27T08:13:02.754Z,17.92
2017-12-27T08:15:30.255Z,16.75
2017-12-27T08:17:57.746Z,17.67
2017-12-27T08:20:25.243Z,16.23
2017-12-27T08:22:53.511Z,17.33
2017-12-27T08:25:21.019Z,19.37
2017-12-27T08:27:48.518Z,17.85
2017-12-27T08:30:16.207Z,16.85
2017-12-27T08:32:44.913Z,16.67
2017-12-27T08:35:12.409Z,19.65
2017-12-27T08:37:40.114Z,17.77
2017-12-27T08:40:08.432Z,18.50
2017-12-27T08:42:35.898Z,18.02
2017-12-27T08:45:03.398Z,17.77
2017-12-27T08:47:31.667Z,18.15
2017-12-27T08:49:59.167Z,15.10
2017-12-27T08:52:26.663Z,18.45
2017-12-27T08:54:54.179Z,17.33
2017-12-27T08:57:21.675Z,16.55
2017-12-27T08:59:49.374Z,18.60
2017-12-27T09:02:17.648Z,16.27
2017-12-27T09:04:45.906Z,14.75
2017-12-27T09:07:13.410Z,16.70
2017-12-27T09:09:40.912Z,17.37
2017-12-27T09:12:08.555Z,19.37
2017-12-27T09:14:36.047Z,16.90
2017-12-27T09:17:03.559Z,16.58
2017-12-27T09:19:31.056Z,18.85
2017-12-27T09:21:58.550Z,17.05
2017-12-27T09:24:26.825Z,18.62
2017-12-27T09:26:55.100Z,15.55
2017-12-27T09:29:23.358Z,19.12
2017-12-27T09:31:51.642Z,14.38
2017-12-27T09:34:19.903Z,14.80
2017-12-27T09:36:47.407Z,13.77
2017-12-27T09:39:15.043Z,20.27
2017-12-27T09:41:44.498Z,17.17
2017-12-27T09:44:12.008Z,18.65
2017-12-27T09:46:40.263Z,17.30
2017-12-27T09:49:07.761Z,16.60
2017-12-27T09:51:35.256Z,17.33
2017-12-27T09:54:02.763Z,15.73
2017-12-27T09:56:31.022Z,16.90
2017-12-27T09:58:59.284Z,17.80
2017-12-27T10:01:26.783Z,14.48
2017-12-27T10:03:54.294Z,14.25
2017-12-27T10:06:21.798Z,16.05
2017-12-27T10:08:49.301Z,14.87
2017-12-27T10:11:16.798Z,15.88
2017-12-27T10:13:45.075Z,15.85
2017-12-27T10:16:13.340Z,16.37
2017-12-27T10:18:41.616Z,15.60
2017-12-27T10:21:09.914Z,14.18
2017-12-27T10:23:38.175Z,15.43
2017-12-27T10:26:06.446Z,14.75
2017-12-27T10:28:34.714Z,15.27
2017-12-27T10:31:02.235Z,14.15
2017-12-27T10:33:29.754Z,13.25
2017-12-27T10:35:58.019Z,14.02
2017-12-27T10:38:26.278Z,14.23
2017-12-27T10:40:53.795Z,13.43
2017-12-27T10:43:21.302Z,14.23
2017-12-27T10:45:48.820Z,13.95
2017-12-27T10:48:16.318Z,14.93
2017-12-27T10:50:43.806Z,14.50
2017-12-27T10:53:11.306Z,16.80
2017-12-27T10:55:38.806Z,15.65
2017-12-27T10:58:07.083Z,14.48
2017-12-27T11:00:35.364Z,14.40
2017-12-27T11:03:03.627Z,15.70
2017-12-27T11:05:31.122Z,14.30
2017-12-27T11:07:58.620Z,13.40
2017-12-27T11:10:26.132Z,14.25
2017-12-27T11:12:53.638Z,20.42
2017-12-27T11:15:21.154Z,14.23
2017-12-27T11:17:48.667Z,15.93
2017-12-27T11:20:16.175Z,13.27
2017-12-27T11:22:43.691Z,13.95
2017-12-27T11:25:11.966Z,12.75
2017-12-27T11:27:39.459Z,14.45
2017-12-27T11:30:06.975Z,14.50
2017-12-27T11:32:34.466Z,15.95
2017-12-27T11:35:02.115Z,13.05
2017-12-27T11:37:30.404Z,13.73
2017-12-27T11:39:57.918Z,15.70
2017-12-27T11:42:25.411Z,13.25
2017-12-27T11:44:53.688Z,13.18
2017-12-27T11:47:21.967Z,14.15
2017-12-27T11:49:50.235Z,13.30
2017-12-27T11:52:18.528Z,13.95
2017-12-27T11:54:46.026Z,13.90
2017-12-27T11:57:13.543Z,15.13
2017-12-27T11:59:42.014Z,15.48
2017-12-27T12:02:10.319Z,14.95
2017-12-27T12:04:37.822Z,16.55
2017-12-27T12:07:05.327Z,15.57
2017-12-27T12:09:32.844Z,15.75
2017-12-27T12:12:01.871Z,18.92
2017-12-27T12:14:30.131Z,15.15
2017-12-27T12:16:58.389Z,15.07
2017-12-27T12:19:25.911Z,20.17
2017-12-27T12:21:53.428Z,25.33
2017-12-27T12:24:21.910Z,25.55
2017-12-27T12:26:50.175Z,26.05
2017-12-27T12:29:17.716Z,28.55
2017-12-27T12:31:45.203Z,24.80
2017-12-27T12:34:13.470Z,26.00
2017-12-27T12:36:41.744Z,24.60
2017-12-27T12:39:10.022Z,28.38
2017-12-27T12:41:38.287Z,25.62
2017-12-27T12:44:05.783Z,26.08
2017-12-27T12:46:33.304Z,29.65
2017-12-27T12:49:00.823Z,30.58
2017-12-27T12:51:28.328Z,27.58
2017-12-27T12:53:55.839Z,27.92
2017-12-27T12:56:23.333Z,26.15
2017-12-27T12:58:50.831Z,26.05
2017-12-27T13:01:18.345Z,30.80
2017-12-27T13:03:45.857Z,29.63
2017-12-27T13:06:13.360Z,29.30
2017-12-27T13:08:40.970Z,28.05
2017-12-27T13:11:08.471Z,27.70
2017-12-27T13:13:36.177Z,29.63
2017-12-27T13:16:04.438Z,31.67
2017-12-27T13:18:32.723Z,33.45
2017-12-27T13:21:00.991Z,31.95
2017-12-27T13:23:28.498Z,26.05
2017-12-27T13:25:56.010Z,29.30
2017-12-27T13:28:24.387Z,31.65
2017-12-27T13:30:51.885Z,29.52
2017-12-27T13:33:19.406Z,28.55
2017-12-27T13:35:47.678Z,27.05
2017-12-27T13:38:15.190Z,30.62
2017-12-27T13:40:42.683Z,29.45
2017-12-27T13:43:10.202Z,28.73
2017-12-27T13:45:37.711Z,29.10
2017-12-27T13:48:05.220Z,31.05
2017-12-27T13:50:32.728Z,33.08
2017-12-27T13:53:00.224Z,30.50
2017-12-27T13:55:27.723Z,29.05
2017-12-27T13:57:55.217Z,28.35
2017-12-27T14:00:23.478Z,30.30
2017-12-27T14:02:50.999Z,30.62
2017-12-27T14:05:18.512Z,29.27
2017-12-27T14:07:46.769Z,28.52
2017-12-27T14:10:14.267Z,28.98
2017-12-27T14:12:41.787Z,32.67
2017-12-27T14:15:09.284Z,29.85
2017-12-27T14:17:36.803Z,31.45
2017-12-27T14:20:04.391Z,33.97
2017-12-27T14:22:31.908Z,34.30
2017-12-27T14:24:59.407Z,35.42
2017-12-27T14:27:26.920Z,35.88
2017-12-27T14:29:55.123Z,29.12
2017-12-27T14:32:23.390Z,34.22
2017-12-27T14:34:51.670Z,29.30
2017-12-27T14:37:19.168Z,29.95
2017-12-27T14:39:46.779Z,34.15
2017-12-27T14:42:14.288Z,33.00
2017-12-27T14:44:41.782Z,32.13
2017-12-27T14:47:09.336Z,30.35
2017-12-27T14:49:36.831Z,31.95
2017-12-27T14:52:05.098Z,35.35
2017-12-27T14:54:32.598Z,38.30
2017-12-27T14:57:00.101Z,32.92
2017-12-27T14:59:27.610Z,40.45
2017-12-27T15:01:55.145Z,39.20
2017-12-27T15:04:23.406Z,40.83
2017-12-27T15:06:50.907Z,41.97
2017-12-27T15:09:19.199Z,51.15
2017-12-27T15:11:46.823Z,36.25
2017-12-27T15:14:15.095Z,43.17
2017-12-27T15:16:43.361Z,38.35
2017-12-27T15:19:11.646Z,91.95
2017-12-27T15:21:39.912Z,202.13
2017-12-27T15:24:08.199Z,92.15
2017-12-27T15:26:36.482Z,65.53
2017-12-27T15:29:04.746Z,57.28
2017-12-27T15:31:33.015Z,57.58
2017-12-27T15:34:02.019Z,47.70
2017-12-27T15:36:30.498Z,42.38
2017-12-27T15:38:58.763Z,57.45
2017-12-27T15:41:27.042Z,72.07
2017-12-27T15:43:55.312Z,33.40
2017-12-27T15:46:22.814Z,65.55
2017-12-27T15:48:50.312Z,40.08
2017-12-27T15:51:17.823Z,57.08
2017-12-27T15:53:45.323Z,110.40
2017-12-27T15:56:12.818Z,99.35
2017-12-27T15:58:41.100Z,68.03
2017-12-27T16:01:09.379Z,96.93
2017-12-27T16:03:37.650Z,121.50
2017-12-27T16:06:05.922Z,135.40
2017-12-27T16:08:34.192Z,91.68
2017-12-27T16:11:01.878Z,80.00
2017-12-27T16:13:29.383Z,125.20
2017-12-27T16:15:56.879Z,70.10
2017-12-27T16:18:25.271Z,126.15
2017-12-27T16:20:53.552Z,53.08
2017-12-27T16:23:21.051Z,62.83
2017-12-27T16:25:48.562Z,63.40
2017-12-27T16:28:16.835Z,49.25
2017-12-27T16:30:45.114Z,127.87
2017-12-27T16:33:13.386Z,112.28
2017-12-27T16:35:41.646Z,46.45
2017-12-27T16:38:09.922Z,134.32
2017-12-27T16:40:37.443Z,50.95
2017-12-27T16:43:04.943Z,152.10
2017-12-27T16:45:33.207Z,126.30
2017-12-27T16:48:01.506Z,119.87
2017-12-27T16:50:29.771Z,51.78
2017-12-27T16:52:57.267Z,97.30
2017-12-27T16:55:24.773Z,49.28
2017-12-27T16:57:52.422Z,79.37
2017-12-27T17:00:20.224Z,92.22
2017-12-27T17:02:47.758Z,176.37
2017-12-27T17:05:15.499Z,70.50
2017-12-27T17:07:43.057Z,156.68
2017-12-27T17:10:10.555Z,74.35
2017-12-27T17:12:38.838Z,216.77
2017-12-27T17:15:07.108Z,93.62
2017-12-27T17:17:34.603Z,88.22
2017-12-27T17:20:02.147Z,40.50
2017-12-27T17:22:29.654Z,58.42
2017-12-27T17:24:57.182Z,53.40
2017-12-27T17:27:24.678Z,111.57
2017-12-27T17:29:52.183Z,56.83
2017-12-27T17:32:19.686Z,121.07
2017-12-27T17:34:47.206Z,135.32
2017-12-27T17:37:14.847Z,92.35
2017-12-27T17:39:43.216Z,50.97
2017-12-27T17:42:11.668Z,121.13
2017-12-27T17:44:39.284Z,73.18
2017-12-27T17:47:06.798Z,47.88
2017-12-27T17:49:34.327Z,54.55
2017-12-27T17:52:01.842Z,106.70
2017-12-27T17:54:30.106Z,82.47
2017-12-27T17:56:57.605Z,195.68
2017-12-27T17:59:25.102Z,111.47
2017-12-27T18:01:52.603Z,97.62
2017-12-27T18:04:20.871Z,143.73
2017-12-27T18:06:49.136Z,72.97
2017-12-27T18:09:16.628Z,84.87
2017-12-27T18:11:44.126Z,62.15
2017-12-27T18:14:11.636Z,65.45
2017-12-27T18:16:39.138Z,69.12
2017-12-27T18:19:06.674Z,40.38
2017-12-27T18:21:34.184Z,83.90
2017-12-27T18:24:01.690Z,76.40
2017-12-27T18:26:29.187Z,69.87
2017-12-27T18:28:56.688Z,52.13
2017-12-27T18:31:24.186Z,67.12
2017-12-27T18:33:51.702Z,62.45
2017-12-27T18:36:19.202Z,92.40
2017-12-27T18:38:46.703Z,128.65
2017-12-27T18:41:14.986Z,74.03
2017-12-27T18:43:43.258Z,52.15
2017-12-27T18:46:11.542Z,44.33
2017-12-27T18:48:40.015Z,42.03
2017-12-27T18:51:08.295Z,45.90
2017-12-27T18:53:36.653Z,46.58
2017-12-27T18:56:04.208Z,56.97
2017-12-27T18:58:31.757Z,43.72
2017-12-27T19:00:59.294Z,44.70
2017-12-27T19:03:26.806Z,44.58
2017-12-27T19:05:55.098Z,42.83
2017-12-27T19:08:22.745Z,44.92
2017-12-27T19:10:51.041Z,38.88
2017-12-27T19:13:18.550Z,44.50
2017-12-27T19:15:46.067Z,48.00
2017-12-27T19:18:13.582Z,45.58
2017-12-27T19:20:41.119Z,12.25
2017-12-27T19:23:08.651Z,7.78
2017-12-27T19:25:36.150Z,5.50
2017-12-27T19:28:03.671Z,4.75
2017-12-27T19:30:31.212Z,4.12
2017-12-27T19:32:58.791Z,3.45
2017-12-27T19:35:26.306Z,3.45
2017-12-27T19:37:54.586Z,3.70
2017-12-27T19:40:22.838Z,5.53
2017-12-27T19:42:50.351Z,3.20
2017-12-27T19:45:17.863Z,3.50
2017-12-27T19:47:45.370Z,3.37
2017-12-27T19:50:13.023Z,3.08
2017-12-27T19:52:40.522Z,3.45
2017-12-27T19:55:08.223Z,3.33
2017-12-27T19:57:36.479Z,3.78
2017-12-27T20:00:04.000Z,3.00
2017-12-27T20:02:31.522Z,2.70
2017-12-27T20:04:59.787Z,2.92
2017-12-27T20:07:28.073Z,3.65
2017-12-27T20:09:56.360Z,3.33
2017-12-27T20:12:23.886Z,3.20
2017-12-27T20:14:51.395Z,2.85
2017-12-27T20:17:18.902Z,3.10
2017-12-27T20:19:46.443Z,3.50
2017-12-27T20:22:14.002Z,3.72
2017-12-27T20:24:41.723Z,3.60
2017-12-27T20:27:09.250Z,3.80
2017-12-27T20:29:36.759Z,3.90
2017-12-27T20:32:04.296Z,3.92
2017-12-27T20:34:31.830Z,3.80
2017-12-27T20:37:00.118Z,6.47
2017-12-27T20:39:28.387Z,4.10
2017-12-27T20:41:56.670Z,6.15
2017-12-27T20:44:24.951Z,4.20
2017-12-27T20:46:53.224Z,4.30
2017-12-27T20:49:21.653Z,4.35
2017-12-27T20:51:49.147Z,4.10
2017-12-27T20:54:17.458Z,4.05
2017-12-27T20:56:44.969Z,5.57
2017-12-27T20:59:13.980Z,5.35
2017-12-27T21:01:42.320Z,5.75
2017-12-27T21:04:10.053Z,5.18
2017-12-27T21:06:37.601Z,5.53
2017-12-27T21:09:05.161Z,5.82
2017-12-27T21:11:32.658Z,6.22
2017-12-27T21:14:00.171Z,4.72
2017-12-27T21:16:28.445Z,5.40
2017-12-27T21:18:56.815Z,5.82
2017-12-27T21:21:25.094Z,6.65
2017-12-27T21:23:53.401Z,7.35
2017-12-27T21:26:20.943Z,6.30
2017-12-27T21:28:48.445Z,6.18
2017-12-27T21:31:15.959Z,5.82
2017-12-27T21:33:44.211Z,6.53
2017-12-27T21:36:11.703Z,6.30
2017-12-27T21:38:39.203Z,8.02
2017-12-27T21:41:06.691Z,7.05
2017-12-27T21:43:34.950Z,6.57
2017-12-27T21:46:02.442Z,7.18
2017-12-27T21:48:36.522Z,6.28
2017-12-27T21:51:04.035Z,8.00
2017-12-27T21:53:31.523Z,7.05
2017-12-27T21:55:59.019Z,7.10
2017-12-27T21:58:32.914Z,6.70
2017-12-27T22:01:06.179Z,8.80
2017-12-27T22:03:33.682Z,7.15
2017-12-27T22:06:01.940Z,6.65
2017-12-27T22:08:29.431Z,7.97
2017-12-27T22:10:56.948Z,6.55
2017-12-27T22:13:25.950Z,8.23
2017-12-27T22:15:53.462Z,6.62
2017-12-27T22:18:20.975Z,14.10
2017-12-27T22:20:54.970Z,7.12
2017-12-27T22:23:22.466Z,8.20
2017-12-27T22:25:49.975Z,6.68
2017-12-27T22:28:17.473Z,6.45
2017-12-27T22:30:45.749Z,6.65
2017-12-27T22:33:14.007Z,6.05
2017-12-27T22:35:41.494Z,6.15
2017-12-27T22:38:09.003Z,6.53
2017-12-27T22:40:36.492Z,6.87
2017-12-27T22:43:04.775Z,6.30
2017-12-27T22:45:33.042Z,6.97
2017-12-27T22:48:01.302Z,6.68
2017-12-27T22:50:28.799Z,6.87
2017-12-27T22:52:56.302Z,7.20
2017-12-27T22:55:23.809Z,7.20
2017-12-27T22:57:52.070Z,6.47
2017-12-27T23:00:20.457Z,7.00
2017-12-27T23:02:48.720Z,6.60
2017-12-27T23:05:16.227Z,6.30
2017-12-27T23:07:43.718Z,5.75
2017-12-27T23:10:11.206Z,5.50
2017-12-27T23:12:39.478Z,5.90
2017-12-27T23:15:07.750Z,5.82
2017-12-27T23:17:36.014Z,5.15
2017-12-27T23:20:03.519Z,5.10
2017-12-27T23:22:31.010Z,5.15
2017-12-27T23:24:58.500Z,5.18
2017-12-27T23:27:26.779Z,5.40
2017-12-27T23:29:55.035Z,5.47
2017-12-27T23:32:23.309Z,5.75
2017-12-27T23:34:50.866Z,4.97
2017-12-27T23:37:18.354Z,5.45
2017-12-27T23:39:46.614Z,5.12
2017-12-27T23:42:14.103Z,5.18
2017-12-27T23:44:41.602Z,4.70
2017-12-27T23:47:09.096Z,5.90
2017-12-27T23:49:37.896Z,5.75
2017-12-27T23:52:06.146Z,4.15
2017-12-27T23:54:33.644Z,6.60
2017-12-27T23:57:02.033Z,5.10
2017-12-27T23:59:29.543Z,5.43
